createdAt,value
2022-10-22T00:01:46.126Z,7.38
2022-10-22T00:04:20.276Z,7.00
2022-10-22T00:09:29.404Z,7.28
2022-10-22T00:12:03.497Z,4.93
2022-10-22T00:14:37.435Z,6.18
2022-10-22T00:17:11.901Z,5.65
2022-10-22T00:19:46.269Z,6.82
2022-10-22T00:22:21.681Z,7.18
2022-10-22T00:24:55.686Z,7.32
2022-10-22T00:27:29.908Z,11.35
2022-10-22T00:30:04.746Z,10.32
2022-10-22T00:32:39.155Z,11.63
2022-10-22T00:35:13.277Z,7.78
2022-10-22T00:37:48.618Z,6.53
2022-10-22T00:40:22.625Z,6.93
2022-10-22T00:42:56.630Z,7.18
2022-10-22T00:45:30.936Z,4.85
2022-10-22T00:48:08.065Z,7.70
2022-10-22T00:50:46.070Z,5.65
2022-10-22T00:53:25.164Z,7.78
2022-10-22T00:55:59.397Z,7.13
2022-10-22T00:58:36.658Z,8.60
2022-10-22T01:01:14.846Z,8.27
2022-10-22T01:03:49.632Z,9.13
2022-10-22T01:06:27.522Z,10.35
2022-10-22T01:09:15.023Z,7.53
2022-10-22T01:12:00.395Z,7.60
2022-10-22T01:14:44.055Z,8.88
2022-10-22T01:17:25.612Z,12.13
2022-10-22T01:20:10.129Z,8.27
2022-10-22T01:22:47.812Z,11.23
2022-10-22T01:25:32.440Z,4.15
2022-10-22T01:28:18.817Z,6.45
2022-10-22T01:30:57.864Z,8.48
2022-10-22T01:33:34.200Z,6.55
2022-10-22T01:36:09.497Z,7.63
2022-10-22T01:38:44.182Z,5.95
2022-10-22T01:41:18.507Z,5.07
2022-10-22T01:43:52.408Z,8.25
2022-10-22T01:49:17.970Z,11.32
2022-10-22T01:52:02.921Z,11.50
2022-10-22T01:54:48.257Z,11.90
2022-10-22T01:57:32.805Z,9.02
2022-10-22T02:00:09.481Z,9.20
2022-10-22T02:02:50.311Z,9.13
2022-10-22T02:05:29.025Z,8.52
2022-10-22T02:08:06.537Z,9.32
2022-10-22T02:10:42.544Z,12.07
2022-10-22T02:13:20.062Z,8.57
2022-10-22T02:15:55.906Z,7.80
2022-10-22T02:18:36.411Z,5.15
2022-10-22T02:21:13.046Z,7.68
2022-10-22T02:23:47.453Z,10.95
2022-10-22T02:26:26.386Z,5.13
2022-10-22T02:29:04.823Z,8.27
2022-10-22T02:31:42.011Z,10.82
2022-10-22T02:34:20.795Z,10.65
2022-10-22T02:36:56.231Z,9.88
2022-10-22T02:39:33.652Z,8.93
2022-10-22T02:42:07.889Z,5.38
2022-10-22T02:44:41.696Z,10.20
2022-10-22T02:49:50.482Z,7.90
2022-10-22T02:52:24.291Z,7.32
2022-10-22T02:57:31.753Z,13.70
2022-10-22T03:00:06.701Z,12.50
2022-10-22T03:02:40.491Z,6.78
2022-10-22T03:07:49.457Z,12.10
2022-10-22T03:12:56.781Z,6.17
2022-10-22T03:18:04.222Z,8.27
2022-10-22T03:20:39.446Z,10.93
2022-10-22T03:23:16.333Z,8.50
2022-10-22T03:25:51.570Z,10.40
2022-10-22T03:28:27.037Z,9.45
2022-10-22T03:31:00.910Z,6.25
2022-10-22T03:36:10.801Z,5.47
2022-10-22T03:38:44.676Z,9.02
2022-10-22T03:41:18.687Z,8.05
2022-10-22T03:43:53.986Z,8.25
2022-10-22T03:46:27.790Z,7.90
2022-10-22T03:51:37.118Z,12.90
2022-10-22T03:54:10.924Z,9.55
2022-10-22T03:59:18.335Z,7.03
2022-10-22T04:04:25.747Z,14.27
2022-10-22T04:07:01.296Z,7.53
2022-10-22T04:09:35.766Z,11.65
2022-10-22T04:12:09.980Z,6.45
2022-10-22T04:14:43.812Z,12.30
2022-10-22T04:19:51.190Z,12.77
2022-10-22T04:24:59.974Z,14.88
2022-10-22T04:30:09.069Z,8.20
2022-10-22T04:32:42.913Z,10.73
2022-10-22T04:37:51.848Z,5.85
2022-10-22T04:40:25.708Z,9.07
2022-10-22T04:45:34.433Z,11.33
2022-10-22T04:48:08.714Z,7.18
2022-10-22T04:50:42.858Z,11.95
2022-10-22T04:55:51.672Z,9.75
2022-10-22T05:00:59.124Z,7.37
2022-10-22T05:03:33.016Z,12.07
2022-10-22T05:08:43.633Z,10.65
2022-10-22T05:11:18.932Z,11.80
2022-10-22T05:13:52.997Z,8.60
2022-10-22T05:16:27.872Z,11.90
2022-10-22T05:19:02.820Z,9.13
2022-10-22T05:21:36.827Z,11.80
2022-10-22T05:24:12.238Z,8.75
2022-10-22T05:26:46.138Z,11.45
2022-10-22T05:29:20.453Z,11.13
2022-10-22T05:31:54.516Z,6.68
2022-10-22T05:34:28.337Z,6.80
2022-10-22T05:39:40.090Z,11.37
2022-10-22T05:42:13.923Z,9.63
2022-10-22T05:47:21.224Z,11.57
2022-10-22T05:52:31.326Z,12.93
2022-10-22T05:57:41.586Z,7.95
2022-10-22T06:00:16.623Z,12.70
2022-10-22T06:02:51.932Z,10.48
2022-10-22T06:05:25.830Z,8.75
2022-10-22T06:07:59.690Z,10.27
2022-10-22T06:10:35.095Z,15.13
2022-10-22T06:13:08.978Z,16.85
2022-10-22T06:15:42.909Z,9.45
2022-10-22T06:18:16.780Z,10.80
2022-10-22T06:23:24.288Z,14.80
2022-10-22T06:26:00.242Z,11.73
2022-10-22T06:28:34.764Z,11.68
2022-10-22T06:31:08.837Z,15.90
2022-10-22T06:33:43.556Z,9.52
2022-10-22T06:36:19.579Z,11.50
2022-10-22T06:38:53.896Z,16.35
2022-10-22T06:41:29.801Z,17.63
2022-10-22T06:44:03.912Z,15.98
2022-10-22T06:46:40.071Z,18.52
2022-10-22T06:49:17.254Z,11.88
2022-10-22T06:51:52.538Z,11.50
2022-10-22T06:54:26.423Z,10.60
2022-10-22T06:57:01.731Z,10.93
2022-10-22T06:59:35.613Z,9.98
2022-10-22T07:02:10.581Z,7.30
2022-10-22T07:04:44.486Z,8.27
2022-10-22T07:07:18.617Z,13.57
2022-10-22T07:09:52.483Z,11.40
2022-10-22T07:12:28.130Z,6.68
2022-10-22T07:15:01.986Z,6.63
2022-10-22T07:20:10.613Z,12.83
2022-10-22T07:22:44.592Z,10.73
2022-10-22T07:27:53.571Z,7.55
2022-10-22T07:30:27.570Z,11.10
2022-10-22T07:33:01.468Z,9.55
2022-10-22T07:35:35.954Z,9.35
2022-10-22T07:38:10.754Z,15.63
2022-10-22T07:40:44.660Z,9.65
2022-10-22T07:43:20.161Z,13.15
2022-10-22T07:45:55.917Z,11.32
2022-10-22T07:48:30.097Z,5.03
2022-10-22T07:51:04.650Z,9.00
2022-10-22T07:53:38.636Z,11.18
2022-10-22T07:56:12.847Z,7.25
2022-10-22T07:58:48.226Z,9.45
2022-10-22T08:01:22.365Z,15.20
2022-10-22T08:03:56.385Z,16.85
2022-10-22T08:06:30.442Z,13.00
2022-10-22T08:09:04.507Z,20.67
2022-10-22T08:11:39.323Z,9.68
2022-10-22T08:14:15.005Z,11.10
2022-10-22T08:16:48.903Z,9.32
2022-10-22T08:19:22.772Z,10.38
2022-10-22T08:21:56.727Z,8.95
2022-10-22T08:24:31.017Z,15.10
2022-10-22T08:27:05.124Z,11.98
2022-10-22T08:29:40.877Z,14.18
2022-10-22T08:32:14.862Z,15.25
2022-10-22T08:34:48.715Z,9.57
2022-10-22T08:37:22.743Z,13.38
2022-10-22T08:39:57.114Z,332.90
2022-10-22T08:42:48.983Z,413.00
2022-10-22T08:45:29.277Z,394.85
2022-10-22T08:48:23.065Z,409.05
2022-10-22T08:50:59.900Z,426.33
2022-10-22T08:53:47.033Z,386.08
2022-10-22T08:56:24.981Z,336.05
2022-10-22T08:59:05.910Z,320.50
2022-10-22T09:01:47.362Z,287.33
2022-10-22T09:04:32.882Z,263.83
2022-10-22T09:07:13.281Z,227.68
2022-10-22T09:09:52.711Z,211.75
2022-10-22T09:12:28.994Z,173.00
2022-10-22T09:15:03.816Z,149.07
2022-10-22T09:17:52.294Z,122.57
2022-10-22T09:20:33.648Z,130.48
2022-10-22T09:23:23.745Z,107.32
2022-10-22T09:25:59.842Z,96.70
2022-10-22T09:28:34.350Z,77.32
2022-10-22T09:31:13.250Z,86.82
2022-10-22T09:33:51.769Z,67.95
2022-10-22T09:36:25.847Z,76.15
2022-10-22T09:39:00.854Z,63.13
2022-10-22T09:41:35.002Z,63.58
2022-10-22T09:44:09.100Z,61.75
2022-10-22T09:46:45.736Z,48.33
2022-10-22T09:49:24.190Z,49.85
2022-10-22T09:52:00.104Z,49.60
2022-10-22T09:54:41.348Z,51.58
2022-10-22T09:57:18.110Z,45.85
2022-10-22T09:59:54.120Z,51.42
2022-10-22T10:02:38.633Z,43.38
2022-10-22T10:05:21.630Z,43.42
2022-10-22T10:07:55.689Z,40.13
2022-10-22T10:10:36.551Z,32.08
2022-10-22T10:13:27.214Z,30.67
2022-10-22T10:16:12.167Z,33.63
2022-10-22T10:19:05.986Z,31.48
2022-10-22T10:21:50.730Z,31.33
2022-10-22T10:24:32.400Z,30.83
2022-10-22T10:27:11.228Z,29.30
2022-10-22T10:29:55.286Z,34.67
2022-10-22T10:35:22.424Z,29.20
2022-10-22T10:38:10.527Z,31.23
2022-10-22T10:40:49.811Z,28.15
2022-10-22T10:43:31.070Z,19.88
2022-10-22T10:49:00.715Z,35.72
2022-10-22T10:51:44.512Z,43.92
2022-10-22T10:54:36.774Z,37.97
2022-10-22T10:57:20.748Z,45.70
2022-10-22T11:00:06.738Z,41.08
2022-10-22T11:03:19.524Z,30.92
2022-10-22T11:05:59.464Z,28.13
2022-10-22T11:08:36.908Z,34.20
2022-10-22T11:11:18.160Z,36.05
2022-10-22T11:13:57.229Z,39.97
2022-10-22T11:16:37.043Z,29.58
2022-10-22T11:19:23.034Z,36.55
2022-10-22T11:22:14.770Z,29.98
2022-10-22T11:24:55.040Z,29.83
2022-10-22T11:27:37.245Z,28.75
2022-10-22T11:30:16.783Z,35.95
2022-10-22T11:32:54.561Z,28.15
2022-10-22T11:35:32.261Z,31.48
2022-10-22T11:38:09.861Z,31.45
2022-10-22T11:40:49.100Z,23.48
2022-10-22T11:43:33.085Z,25.98
2022-10-22T11:46:27.057Z,23.38
2022-10-22T11:49:17.728Z,24.23
2022-10-22T11:51:52.809Z,21.17
2022-10-22T11:54:42.925Z,23.27
2022-10-22T11:57:28.632Z,20.02
2022-10-22T12:00:12.264Z,22.77
2022-10-22T12:02:46.929Z,16.35
2022-10-22T12:05:38.013Z,23.00
2022-10-22T12:08:27.600Z,26.40
2022-10-22T12:11:23.031Z,24.55
2022-10-22T12:14:19.881Z,28.40
2022-10-22T12:16:57.943Z,24.00
2022-10-22T12:19:33.952Z,23.08
2022-10-22T12:22:16.701Z,29.70
2022-10-22T12:24:54.015Z,30.98
2022-10-22T12:27:30.679Z,22.40
2022-10-22T12:30:19.024Z,25.25
2022-10-22T12:32:56.818Z,22.60
2022-10-22T12:35:32.490Z,26.40
2022-10-22T12:38:15.254Z,32.15
2022-10-22T12:40:50.482Z,27.92
2022-10-22T12:43:28.025Z,18.77
2022-10-22T12:46:02.300Z,26.33
2022-10-22T12:48:42.754Z,21.95
2022-10-22T12:51:20.517Z,20.83
2022-10-22T12:53:56.548Z,30.52
2022-10-22T12:56:34.831Z,20.92
2022-10-22T12:59:17.951Z,23.00
2022-10-22T13:01:54.772Z,22.50
2022-10-22T13:04:39.244Z,31.35
2022-10-22T13:07:22.299Z,22.42
2022-10-22T13:10:00.723Z,22.48
2022-10-22T13:12:38.306Z,23.00
2022-10-22T13:15:24.772Z,19.60
2022-10-22T13:18:04.518Z,23.05
2022-10-22T13:20:52.324Z,18.60
2022-10-22T13:23:28.240Z,20.67
2022-10-22T13:26:04.937Z,23.13
2022-10-22T13:28:41.435Z,19.58
2022-10-22T13:31:19.239Z,18.58
2022-10-22T13:33:57.359Z,23.33
2022-10-22T13:36:32.954Z,25.48
2022-10-22T13:39:09.399Z,19.30
2022-10-22T13:41:43.555Z,21.83
2022-10-22T13:44:17.826Z,23.13
2022-10-22T13:46:53.081Z,27.52
2022-10-22T13:49:27.041Z,22.45
2022-10-22T13:52:02.477Z,24.92
2022-10-22T13:54:38.022Z,25.63
2022-10-22T13:57:12.408Z,25.90
2022-10-22T13:59:46.312Z,19.33
2022-10-22T14:04:54.327Z,28.30
2022-10-22T14:07:29.833Z,25.80
2022-10-22T14:10:03.928Z,21.42
2022-10-22T14:12:37.799Z,24.98
2022-10-22T14:15:14.412Z,27.80
2022-10-22T14:17:50.857Z,30.13
2022-10-22T14:20:27.827Z,31.27
2022-10-22T14:23:12.618Z,26.98
2022-10-22T14:25:46.728Z,27.02
2022-10-22T14:28:20.941Z,24.27
2022-10-22T14:30:55.245Z,28.48
2022-10-22T14:33:32.387Z,27.85
2022-10-22T14:36:06.821Z,26.33
2022-10-22T14:38:42.326Z,27.80
2022-10-22T14:41:21.418Z,27.45
2022-10-22T14:43:56.013Z,24.90
2022-10-22T14:46:29.906Z,27.38
2022-10-22T14:49:04.254Z,27.17
2022-10-22T14:51:38.045Z,26.80
2022-10-22T14:56:46.915Z,26.70
2022-10-22T15:01:54.382Z,30.10
2022-10-22T15:04:28.602Z,30.92
2022-10-22T15:07:02.436Z,24.75
2022-10-22T15:12:11.352Z,32.53
2022-10-22T15:14:45.241Z,21.20
2022-10-22T15:17:20.043Z,25.02
2022-10-22T15:19:56.342Z,21.55
2022-10-22T15:22:31.724Z,26.15
2022-10-22T15:25:09.305Z,24.15
2022-10-22T15:27:45.493Z,25.23
2022-10-22T15:30:21.498Z,21.55
2022-10-22T15:32:55.310Z,22.60
2022-10-22T15:38:02.756Z,23.13
2022-10-22T15:43:12.272Z,23.42
2022-10-22T15:45:46.549Z,24.63
2022-10-22T15:48:20.370Z,22.40
2022-10-22T15:50:54.414Z,27.25
2022-10-22T15:53:28.307Z,26.80
2022-10-22T15:56:03.702Z,28.23
2022-10-22T15:58:37.685Z,25.05
2022-10-22T16:01:13.794Z,27.00
2022-10-22T16:03:47.878Z,22.92
2022-10-22T16:06:21.903Z,28.15
2022-10-22T16:08:55.945Z,29.00
2022-10-22T16:11:31.508Z,28.27
2022-10-22T16:14:06.381Z,28.63
2022-10-22T16:16:43.226Z,29.20
2022-10-22T16:19:19.349Z,24.92
2022-10-22T16:21:55.529Z,27.20
2022-10-22T16:24:29.363Z,29.58
2022-10-22T16:29:39.439Z,27.50
2022-10-22T16:32:13.473Z,28.88
2022-10-22T16:34:47.281Z,26.38
2022-10-22T16:39:54.679Z,26.30
2022-10-22T16:42:30.907Z,29.58
2022-10-22T16:45:05.249Z,32.55
2022-10-22T16:47:39.780Z,32.55
2022-10-22T16:50:13.913Z,29.20
2022-10-22T16:52:47.723Z,28.98
2022-10-22T16:57:56.606Z,27.67
2022-10-22T17:00:30.809Z,32.22
2022-10-22T17:03:04.990Z,32.53
2022-10-22T17:05:38.852Z,33.67
2022-10-22T17:10:46.326Z,32.83
2022-10-22T17:13:21.709Z,28.13
2022-10-22T17:16:03.186Z,28.85
2022-10-22T17:18:39.096Z,30.40
2022-10-22T17:21:13.849Z,27.30
2022-10-22T17:23:48.528Z,30.75
2022-10-22T17:26:23.547Z,25.90
2022-10-22T17:28:59.278Z,24.02
2022-10-22T17:31:37.371Z,23.40
2022-10-22T17:34:17.208Z,22.95
2022-10-22T17:36:50.986Z,24.92
2022-10-22T17:41:58.273Z,22.00
2022-10-22T17:47:07.280Z,20.80
2022-10-22T17:52:15.127Z,23.20
2022-10-22T17:54:50.173Z,23.25
2022-10-22T17:57:24.028Z,17.67
2022-10-22T18:02:33.272Z,21.10
2022-10-22T18:05:07.943Z,20.67
2022-10-22T18:07:41.735Z,22.25
2022-10-22T18:12:49.322Z,22.17
2022-10-22T18:15:25.920Z,22.98
2022-10-22T18:17:59.757Z,14.13
2022-10-22T18:23:07.636Z,18.52
2022-10-22T18:25:41.523Z,20.30
2022-10-22T18:28:16.045Z,17.30
2022-10-22T18:30:52.149Z,13.43
2022-10-22T18:33:26.033Z,15.70
2022-10-22T18:36:05.442Z,16.55
2022-10-22T18:38:39.628Z,12.30
2022-10-22T18:41:15.345Z,17.33
2022-10-22T18:43:52.085Z,15.90
2022-10-22T18:46:27.899Z,13.15
2022-10-22T18:49:02.602Z,13.73
2022-10-22T18:51:37.546Z,11.40
2022-10-22T18:54:22.549Z,15.73
2022-10-22T18:57:02.598Z,14.45
2022-10-22T18:59:37.095Z,12.90
2022-10-22T19:02:12.673Z,13.40
2022-10-22T19:04:46.816Z,11.52
2022-10-22T19:07:20.650Z,11.40
2022-10-22T19:12:28.108Z,17.13
2022-10-22T19:15:01.995Z,21.23
2022-10-22T19:17:37.566Z,15.93
2022-10-22T19:20:12.281Z,17.98
2022-10-22T19:22:46.161Z,16.75
2022-10-22T19:25:20.242Z,16.92
2022-10-22T19:27:54.289Z,16.05
2022-10-22T19:30:28.287Z,17.02
2022-10-22T19:33:03.634Z,15.38
2022-10-22T19:35:38.318Z,12.77
2022-10-22T19:38:12.248Z,14.07
2022-10-22T19:40:46.289Z,13.82
2022-10-22T19:43:20.383Z,17.60
2022-10-22T19:45:54.343Z,16.05
2022-10-22T19:48:29.994Z,17.00
2022-10-22T19:51:05.759Z,24.10
2022-10-22T19:53:41.250Z,13.07
2022-10-22T19:56:19.304Z,12.88
2022-10-22T19:58:53.131Z,13.32
2022-10-22T20:04:02.425Z,16.92
2022-10-22T20:06:36.254Z,11.30
